Hami, Japan

8:40 AM JST on 三月 26, 2017 (GMT +0900)
Minami Oosumi | | Change Station

高度 0 ft 31.09 °N, 130.83 °E | Updated 14 minutes ago

だいたい曇
だいたい曇
51.3 °F
体感気温 51.3 °F
1.9
風 変数 風 から
Gusts 2.5 Mph

今日
高い -- | 低 -- °F
--% 降水確率
昨日
高い -- | 低 -- °F
Precip. -- インチ
気圧 29.98 インチ
視程 6.2 マイル
わずか 100 ft
露点温度 50 °F
湿度 96%
降水 0.00 インチ
積雪深 利用不可。
6:12 AM 6:31 PM
二十六夜, 6% visible
METAR RJFK 252300Z 35003KT 9999 R34/P2000N BCFG FEW001 08/08 Q1015 RMK 1ST001 A2998 1500N-E FG N-E
気圧 29.98 インチ
視程 6.2 マイル
わずか 100 ft
露点温度 50 °F
湿度 96%
降水 0.00 インチ
積雪深 利用不可。
6:12 AM 6:31 PM
二十六夜, 6% visible
METAR RJFK 252300Z 35003KT 9999 R34/P2000N BCFG FEW001 08/08 Q1015 RMK 1ST001 A2998 1500N-E FG N-E

Get Severe Weather Alerts

Thanks for signing up!

Be on the lookout for a verification email in your inbox.

You'll start receiving the daily forecast at 8 AM.

×

10-Day Weather Forecast

No radar image for this location.
×

Almanac

天文

Mar. 26, 2017 入り
実時間
常用薄明
航海薄明
天文薄明
可視光の長さ
可照時間
Tomorrow will be .
, % of the Moon is Illuminated

今日の極値

Country Highs Country Lows

Community

WunderPhotos

Upload Photos

1,962,540 写真がアップロードされました!

WunderBlog® & News

Nearby

空気品質

  空気品質 大気質指数 汚染物質
Not available.

積雪深

Station Depth 高度

地震活動

Distance Mag. Time & Date
Minimum magnitude displayed is 2.5.

地震活動

Distance Mag. Time & Date
Minimum magnitude displayed is 2.5.

沿岸の水温

地名 気温

Stations

最寄りの気象観測所

観測所位置 温度 体感気温(寒さ) 露点温度 湿度 Precip. 高度 更新日時 タイプする